Portada
METAR-TAF:

METAR-TAF

Aeroports :

Seyresse

Dacs, França

latitud: 43-41N, longitud: 001-04W, altitud: 32 m

Observació

L'informe es va fer fa 29 minuts, a les 16:30 UTC
Vent 2 kt del Sud-Est
Temperatura 11°C
Humitat 66%
Pressió 1023 hPa

METAR: LFBY 101630Z AUTO 14002KT //// // ////// 11/05 Q1023

Hora: 17:59 (16:59 UTC)

Pronòstic

L'informe es va fer fa 8 hores i 59 minuts, a les 08:00 UTC
Pronòstic vàlid del 10 a les 09 UTC al 10 a les 18 UTC
Vent 3 kt del Sud-Est
Visibilitat: 4000 m
Boira superficial
Evolucionant progressivament
l' 10 a les 09 UTC al 10 a les 10 UTC
Visibilitat 10 km o més
sense núvols per sota de 1500 mi sense presència de cumulonimbus.

TAF: LFBY 100800Z 1009/1018 13003KT 4000 MIFG NSC BECMG 1009/1010 CAVOK

Observacions i pronòstics meteorològics de més de 4000 aeroports (METAR i TAF).

Les estacions disponibles són els punts grocs i vermells al mapa.

Posi el ratolí al punt desitjat per veure el nom de l'estació.

Feu clic per veure les observacions i els pronòstics meteorològics.

Per canviar el mapa: feu clic els botons verds amb una creu de color negre per apropar; al botó verd amb un guió per allunyar la imatge; o en les fletxes verdes per a mapes adjacents.


METAR-TAF: